Time;durP1;ratioP1;P1;durP2;ratioP2;P2;SDS_P1;SDS_P2;PMS_P1;PMS_P2;Temp;Humidity;BMP_temperature;BMP_pressure;BME280_temperature;BME280_humidity;BME280_pressure;Samples;Min_cycle;Max_cycle;Signal;HPM_P1;HPM_P2
2022/06/11 00:02:24;;;;;;;9.20;5.00;;;12.10;58.70;;;;;;5011990;28;45996;-62
2022/06/11 00:04:50;;;;;;;8.50;4.70;;;12.10;58.80;;;;;;5013383;28;46819;-61
2022/06/11 00:07:20;;;;;;;11.67;6.07;;;12.10;58.80;;;;;;5016422;28;46500;-62
2022/06/11 00:09:46;;;;;;;15.93;5.63;;;12.10;58.80;;;;;;5019502;28;46456;-61
2022/06/11 00:12:13;;;;;;;12.40;6.03;;;12.10;58.90;;;;;;5014130;28;46380;-62
2022/06/11 00:14:40;;;;;;;9.00;5.87;;;12.10;59.10;;;;;;5012232;28;46422;-62
2022/06/11 00:17:08;;;;;;;11.70;6.10;;;12.10;59.20;;;;;;5010987;28;45857;-62
2022/06/11 00:19:35;;;;;;;7.00;5.10;;;12.00;59.20;;;;;;5013232;28;46407;-62
2022/06/11 00:22:02;;;;;;;8.00;5.30;;;12.00;59.40;;;;;;5013897;28;46453;-61
2022/06/11 00:24:28;;;;;;;9.20;5.37;;;12.00;59.60;;;;;;5013294;28;46458;-62
2022/06/11 00:26:56;;;;;;;7.20;4.63;;;12.00;59.70;;;;;;5012795;28;46371;-62
2022/06/11 00:29:25;;;;;;;9.73;5.30;;;12.00;59.80;;;;;;5014330;28;46458;-62
2022/06/11 00:31:52;;;;;;;13.67;5.10;;;11.90;59.90;;;;;;5011027;28;46497;-62
2022/06/11 00:34:18;;;;;;;8.20;4.40;;;11.80;60.10;;;;;;5009670;28;46287;-62
2022/06/11 00:36:44;;;;;;;7.30;4.40;;;11.80;60.50;;;;;;5013188;28;45793;-62
2022/06/11 00:39:13;;;;;;;6.70;4.67;;;11.80;60.80;;;;;;5016552;28;46423;-62
2022/06/11 00:41:41;;;;;;;7.13;4.63;;;11.70;60.80;;;;;;5011273;28;47308;-62
2022/06/11 00:44:07;;;;;;;6.37;4.33;;;11.60;60.80;;;;;;5014802;28;46409;-63
2022/06/11 00:46:55;;;;;;;10.20;4.10;;;11.60;61.00;;;;;;5012737;28;46404;-62
2022/06/11 00:49:34;;;;;;;8.30;3.23;;;11.50;61.20;;;;;;5012425;28;46915;-63
2022/06/11 00:52:16;;;;;;;6.00;4.20;;;11.40;61.10;;;;;;5011894;28;46431;-62
2022/06/11 00:54:47;;;;;;;8.27;4.13;;;11.30;61.20;;;;;;5010555;28;46522;-62
2022/06/11 00:57:14;;;;;;;7.60;4.23;;;11.20;61.50;;;;;;5014706;28;46422;-62
2022/06/11 00:59:50;;;;;;;9.50;4.90;;;11.20;61.60;;;;;;5009347;28;46557;-62
2022/06/11 01:02:16;;;;;;;15.00;4.70;;;11.20;61.90;;;;;;5012157;28;47448;-63
2022/06/11 01:04:49;;;;;;;14.53;5.13;;;11.10;61.90;;;;;;5008642;28;45835;-63
2022/06/11 01:07:41;;;;;;;11.73;4.37;;;11.10;62.00;;;;;;5012783;28;46490;-62
2022/06/11 01:10:25;;;;;;;11.70;5.43;;;11.10;61.80;;;;;;5010180;28;46572;-63
2022/06/11 01:13:10;;;;;;;10.40;4.60;;;11.00;61.70;;;;;;5011950;28;46328;-62
2022/06/11 01:15:52;;;;;;;16.77;5.03;;;11.00;61.70;;;;;;5013961;28;46256;-62
2022/06/11 01:18:23;;;;;;;12.10;5.10;;;11.00;61.70;;;;;;5013563;28;46442;-63
2022/06/11 01:21:11;;;;;;;8.13;4.70;;;11.00;61.70;;;;;;5013601;28;46470;-64
2022/06/11 01:24:03;;;;;;;13.90;5.53;;;11.00;61.80;;;;;;5012344;28;46236;-62
2022/06/11 01:26:42;;;;;;;14.13;5.90;;;11.00;62.10;;;;;;5011766;28;45869;-63
2022/06/11 01:29:26;;;;;;;12.37;5.50;;;11.00;61.80;;;;;;5012653;28;46387;-62
2022/06/11 01:32:14;;;;;;;14.50;5.70;;;11.00;62.10;;;;;;5011979;28;46392;-62
2022/06/11 01:34:46;;;;;;;7.60;5.10;;;11.00;61.90;;;;;;4994102;28;47209;-62
2022/06/11 01:37:18;;;;;;;10.40;5.70;;;11.00;61.70;;;;;;5012459;28;46483;-63
2022/06/11 01:39:52;;;;;;;15.83;5.60;;;11.00;61.80;;;;;;5009746;28;46346;-63
2022/06/11 01:42:34;;;;;;;14.80;5.77;;;11.00;61.80;;;;;;5014636;28;46454;-63
2022/06/11 01:45:09;;;;;;;9.27;5.27;;;11.00;61.90;;;;;;5009386;28;46891;-64
2022/06/11 01:47:36;;;;;;;9.57;5.57;;;11.00;61.80;;;;;;5011504;28;46374;-62
2022/06/11 01:50:04;;;;;;;14.73;5.87;;;11.10;62.00;;;;;;5010441;28;46471;-61
2022/06/11 01:52:48;;;;;;;8.03;5.57;;;11.10;61.90;;;;;;5010802;28;46513;-61
2022/06/11 01:55:31;;;;;;;12.93;5.57;;;11.10;62.10;;;;;;5010200;28;46280;-62
2022/06/11 01:58:32;;;;;;;9.20;5.17;;;11.10;62.10;;;;;;4993616;28;46410;-63
2022/06/11 02:01:14;;;;;;;10.97;6.00;;;11.10;62.10;;;;;;5008313;28;45986;-62
2022/06/11 02:04:12;;;;;;;8.80;5.30;;;11.00;62.10;;;;;;5009454;28;46423;-63
2022/06/11 02:07:04;;;;;;;10.47;4.93;;;11.00;62.40;;;;;;5010692;28;46435;-63
2022/06/11 02:09:39;;;;;;;10.50;5.50;;;11.00;62.50;;;;;;5012884;28;46422;-61
2022/06/11 02:12:16;;;;;;;12.10;5.40;;;11.00;62.50;;;;;;5010955;28;46735;-61
2022/06/11 02:14:52;;;;;;;13.70;5.47;;;10.90;62.40;;;;;;5010884;28;46411;-62
2022/06/11 02:17:24;;;;;;;9.43;4.90;;;10.90;62.40;;;;;;5009857;28;47537;-64
2022/06/11 02:20:08;;;;;;;9.87;4.93;;;10.80;62.60;;;;;;5009478;28;45893;-62
2022/06/11 02:22:45;;;;;;;7.87;4.67;;;10.80;62.70;;;;;;5009265;28;46383;-62
2022/06/11 02:25:22;;;;;;;7.30;5.00;;;10.80;62.80;;;;;;5012339;28;46439;-63
2022/06/11 02:27:50;;;;;;;13.30;5.00;;;10.80;62.80;;;;;;5013220;28;46689;-64
2022/06/11 02:30:20;;;;;;;8.83;5.47;;;10.80;62.90;;;;;;5005221;28;46369;-63
2022/06/11 02:32:46;;;;;;;16.90;5.90;;;10.80;62.80;;;;;;5008935;28;46402;-62
2022/06/11 02:35:22;;;;;;;9.70;5.80;;;10.80;62.80;;;;;;5009760;28;46387;-62
2022/06/11 02:37:48;;;;;;;11.80;6.00;;;10.80;63.90;;;;;;5008200;28;47054;-63
2022/06/11 02:40:23;;;;;;;9.80;6.13;;;10.90;62.60;;;;;;5005925;28;46502;-63
2022/06/11 02:42:49;;;;;;;8.13;4.27;;;10.90;62.60;;;;;;5009723;28;46363;-63
2022/06/11 02:45:16;;;;;;;6.20;4.50;;;10.90;62.80;;;;;;5014697;28;46437;-62
2022/06/11 02:47:44;;;;;;;6.10;3.70;;;10.80;63.00;;;;;;5008873;28;46156;-62
2022/06/11 02:50:19;;;;;;;6.20;3.70;;;10.60;63.20;;;;;;5012651;28;45879;-63
2022/06/11 02:52:45;;;;;;;12.57;3.97;;;10.60;63.50;;;;;;5009871;28;46403;-62
2022/06/11 02:55:11;;;;;;;5.33;3.73;;;10.50;63.80;;;;;;5008395;28;46444;-62
2022/06/11 02:57:38;;;;;;;7.80;3.80;;;10.40;64.10;;;;;;5011975;28;46434;-63
2022/06/11 03:00:05;;;;;;;8.80;3.80;;;10.30;64.10;;;;;;5009199;28;46445;-63
2022/06/11 03:02:31;;;;;;;6.33;4.00;;;10.30;64.00;;;;;;5016737;28;46384;-62
2022/06/11 03:04:57;;;;;;;11.77;4.23;;;10.30;63.90;;;;;;5014078;28;46351;-63
2022/06/11 03:07:23;;;;;;;6.33;3.90;;;10.30;64.00;;;;;;5013213;28;46024;-62
2022/06/11 03:09:49;;;;;;;15.63;4.63;;;10.30;63.80;;;;;;5010334;28;46322;-63
2022/06/11 03:12:16;;;;;;;8.67;4.93;;;10.30;63.60;;;;;;5012103;28;46361;-63
2022/06/11 03:14:43;;;;;;;12.33;4.77;;;10.30;63.60;;;;;;4997971;28;46658;-63
2022/06/11 03:17:12;;;;;;;8.20;4.80;;;10.40;63.70;;;;;;5011868;28;47723;-63
2022/06/11 03:19:39;;;;;;;8.27;4.53;;;10.40;63.90;;;;;;5014149;28;46381;-63
2022/06/11 03:22:07;;;;;;;7.63;4.47;;;10.40;63.80;;;;;;5009794;28;46383;-62
2022/06/11 03:24:33;;;;;;;7.67;4.10;;;10.40;63.80;;;;;;5015602;28;46494;-63
2022/06/11 03:26:59;;;;;;;6.93;4.50;;;10.40;63.80;;;;;;5013611;28;46869;-62
2022/06/11 03:29:25;;;;;;;6.50;4.63;;;10.40;63.80;;;;;;5009511;28;45842;-63
2022/06/11 03:31:52;;;;;;;18.00;6.77;;;10.40;63.80;;;;;;5016417;28;46418;-62
2022/06/11 03:34:18;;;;;;;8.70;5.07;;;10.50;63.80;;;;;;5016774;28;46248;-63
2022/06/11 03:36:46;;;;;;;7.00;4.50;;;10.50;63.50;;;;;;5014922;28;46358;-62
2022/06/11 03:39:12;;;;;;;10.90;4.40;;;10.60;63.50;;;;;;5012880;28;45893;-63
2022/06/11 03:41:39;;;;;;;6.80;4.27;;;10.70;63.20;;;;;;5014570;28;46599;-63
2022/06/11 03:44:05;;;;;;;8.47;4.37;;;10.80;63.10;;;;;;5014764;28;46303;-62
2022/06/11 03:46:31;;;;;;;8.37;5.13;;;10.90;63.10;;;;;;5017533;28;46612;-63
2022/06/11 03:48:56;;;;;;;7.73;4.80;;;10.90;62.90;;;;;;5015376;28;46359;-62
2022/06/11 03:51:23;;;;;;;8.57;5.90;;;11.00;62.90;;;;;;5016288;28;46323;-63
2022/06/11 03:53:49;;;;;;;12.33;5.10;;;11.10;62.90;;;;;;5015774;28;46579;-63
2022/06/11 03:56:16;;;;;;;8.20;5.07;;;11.20;62.90;;;;;;5009295;28;46919;-62
2022/06/11 03:58:44;;;;;;;9.83;5.60;;;11.30;62.80;;;;;;5015122;28;46004;-62
2022/06/11 04:01:18;;;;;;;13.30;5.20;;;11.40;62.90;;;;;;5014803;28;46376;-62
2022/06/11 04:03:48;;;;;;;10.50;5.00;;;11.40;62.90;;;;;;5013817;28;46420;-63
2022/06/11 04:06:17;;;;;;;9.73;4.80;;;11.50;62.70;;;;;;5013047;28;46623;-62
2022/06/11 04:08:43;;;;;;;8.80;5.70;;;11.60;62.50;;;;;;5011822;28;46418;-63
2022/06/11 04:11:11;;;;;;;10.07;5.63;;;11.70;62.50;;;;;;5014939;28;46482;-63
2022/06/11 04:13:39;;;;;;;9.87;5.47;;;11.80;62.40;;;;;;5011141;28;46590;-63
2022/06/11 04:16:06;;;;;;;14.90;6.03;;;11.90;62.30;;;;;;5012502;28;46386;-62
2022/06/11 04:18:43;;;;;;;10.80;5.47;;;12.00;62.00;;;;;;5009706;28;46409;-63
2022/06/11 04:21:12;;;;;;;11.37;5.70;;;12.20;61.90;;;;;;5018361;28;46316;-63
2022/06/11 04:23:40;;;;;;;7.77;5.33;;;12.40;61.70;;;;;;5012634;28;46368;-63
2022/06/11 04:26:09;;;;;;;13.63;6.13;;;12.50;61.40;;;;;;5014827;28;46967;-63
2022/06/11 04:28:35;;;;;;;10.17;5.80;;;12.70;61.10;;;;;;5010291;28;46607;-63
2022/06/11 04:31:03;;;;;;;7.53;5.40;;;12.80;61.10;;;;;;5011541;28;46372;-62
2022/06/11 04:33:29;;;;;;;9.33;4.97;;;13.00;60.90;;;;;;5013837;28;46427;-63
2022/06/11 04:35:55;;;;;;;8.37;4.80;;;13.10;60.50;;;;;;5012241;28;47290;-63
2022/06/11 04:38:21;;;;;;;13.27;5.30;;;13.30;60.50;;;;;;5011473;28;46434;-60
2022/06/11 04:40:47;;;;;;;8.53;5.40;;;13.40;60.30;;;;;;5011244;28;46392;-61
2022/06/11 04:43:13;;;;;;;5.90;4.47;;;13.90;59.30;;;;;;5013172;28;45943;-62
2022/06/11 04:45:38;;;;;;;12.30;3.87;;;15.80;58.20;;;;;;5011651;28;46421;-63
2022/06/11 04:48:05;;;;;;;10.30;3.63;;;17.70;54.40;;;;;;5013387;28;46738;-63
2022/06/11 04:50:31;;;;;;;8.67;4.33;;;19.30;50.00;;;;;;5011839;28;46256;-61
2022/06/11 04:52:56;;;;;;;9.23;3.70;;;20.70;46.70;;;;;;5012064;28;46345;-62
2022/06/11 04:55:22;;;;;;;12.87;3.93;;;21.90;43.80;;;;;;5009789;28;46997;-63
2022/06/11 04:57:48;;;;;;;8.50;3.60;;;23.00;40.90;;;;;;5011493;28;46455;-64
2022/06/11 05:00:18;;;;;;;5.83;3.30;;;23.80;37.60;;;;;;5011679;28;46373;-62
2022/06/11 05:02:45;;;;;;;7.63;3.60;;;24.40;34.90;;;;;;5008720;28;46392;-63
2022/06/11 05:05:11;;;;;;;11.00;3.57;;;25.10;34.50;;;;;;5009837;28;47131;-62
2022/06/11 05:07:37;;;;;;;6.60;3.10;;;25.60;32.00;;;;;;5012480;28;46392;-62
2022/06/11 05:10:04;;;;;;;6.17;3.37;;;26.20;30.20;;;;;;5010321;28;46363;-63
2022/06/11 05:12:30;;;;;;;5.87;3.57;;;26.70;28.80;;;;;;5009773;28;45880;-61
2022/06/11 05:14:55;;;;;;;6.17;3.10;;;27.20;27.50;;;;;;5011694;28;46334;-60
2022/06/11 05:17:21;;;;;;;5.83;3.37;;;27.50;27.30;;;;;;5010776;28;46491;-61
2022/06/11 05:19:47;;;;;;;8.70;3.57;;;27.90;25.90;;;;;;5016052;28;46738;-60
2022/06/11 05:22:12;;;;;;;4.20;3.10;;;28.10;25.00;;;;;;5012786;28;46507;-60
2022/06/11 05:24:38;;;;;;;5.03;2.80;;;28.30;23.90;;;;;;5011359;28;46432;-60
2022/06/11 05:27:13;;;;;;;4.73;3.03;;;28.70;23.10;;;;;;5013600;28;46404;-60
2022/06/11 05:30:02;;;;;;;6.83;3.23;;;28.90;21.90;;;;;;5005964;28;46446;-61
2022/06/11 05:32:32;;;;;;;5.23;3.10;;;29.40;20.60;;;;;;5015839;28;45879;-61
2022/06/11 05:34:59;;;;;;;4.70;2.83;;;29.80;20.50;;;;;;5010930;28;46903;-60
2022/06/11 05:37:25;;;;;;;4.70;2.83;;;30.20;20.00;;;;;;5012348;28;46653;-60
2022/06/11 05:39:51;;;;;;;4.53;2.60;;;30.20;19.60;;;;;;5012970;28;46450;-61
2022/06/11 05:42:18;;;;;;;4.60;3.10;;;30.40;18.90;;;;;;5013967;28;46378;-62
2022/06/11 05:44:44;;;;;;;4.97;2.83;;;30.60;17.90;;;;;;5009722;28;46404;-60
2022/06/11 05:47:15;;;;;;;5.90;3.03;;;30.70;18.00;;;;;;5012997;28;46693;-61
2022/06/11 05:49:45;;;;;;;4.30;2.50;;;30.80;17.10;;;;;;5007523;28;46349;-60
2022/06/11 05:52:18;;;;;;;6.27;3.00;;;30.60;17.20;;;;;;5011924;28;46482;-61
2022/06/11 05:54:46;;;;;;;7.37;2.50;;;29.10;20.10;;;;;;5011391;28;46380;-62
2022/06/11 05:57:17;;;;;;;9.03;2.90;;;27.20;24.40;;;;;;5010498;28;45856;-61
2022/06/11 05:59:46;;;;;;;3.93;2.60;;;25.70;27.00;;;;;;5019489;28;46380;-60
2022/06/11 06:02:15;;;;;;;4.37;2.40;;;24.80;30.00;;;;;;5010258;28;46447;-60
2022/06/11 06:04:40;;;;;;;4.70;2.53;;;24.10;30.50;;;;;;5011596;28;46979;-60
2022/06/11 06:07:07;;;;;;;3.97;2.90;;;23.50;32.20;;;;;;5013792;28;46368;-61
2022/06/11 06:09:34;;;;;;;3.57;2.67;;;23.00;32.20;;;;;;5010468;28;46417;-62
2022/06/11 06:12:00;;;;;;;4.70;2.63;;;22.60;32.40;;;;;;5013410;28;46600;-61
2022/06/11 06:14:25;;;;;;;6.40;2.73;;;22.40;32.80;;;;;;5009362;28;46458;-62
2022/06/11 06:16:51;;;;;;;4.83;3.03;;;22.10;32.80;;;;;;5012515;28;46538;-61
2022/06/11 06:19:17;;;;;;;8.90;3.00;;;21.90;32.70;;;;;;5009488;28;46429;-61
2022/06/11 06:21:42;;;;;;;7.30;3.33;;;21.90;32.70;;;;;;5012367;28;46573;-61
2022/06/11 06:24:09;;;;;;;5.80;2.93;;;21.90;32.60;;;;;;5011683;28;47058;-62
2022/06/11 06:26:34;;;;;;;5.00;3.27;;;21.80;32.70;;;;;;5013179;28;46445;-62
2022/06/11 06:29:00;;;;;;;6.20;3.03;;;21.70;32.70;;;;;;5010298;28;46513;-62
2022/06/11 06:31:26;;;;;;;6.90;3.43;;;21.70;32.80;;;;;;5012062;28;46498;-62
2022/06/11 06:33:52;;;;;;;6.40;2.83;;;21.70;32.90;;;;;;5012929;28;46371;-62
2022/06/11 06:36:18;;;;;;;3.83;2.57;;;21.60;33.00;;;;;;5008054;28;46378;-62
2022/06/11 06:38:45;;;;;;;6.50;2.90;;;21.60;32.80;;;;;;5011650;28;46371;-61
2022/06/11 06:41:12;;;;;;;5.80;3.00;;;21.70;32.80;;;;;;5009114;28;45959;-61
2022/06/11 06:43:38;;;;;;;6.90;3.53;;;21.70;32.80;;;;;;5008271;28;47136;-61
2022/06/11 06:46:04;;;;;;;6.50;3.13;;;21.80;33.20;;;;;;5011245;28;46378;-62
2022/06/11 06:48:30;;;;;;;4.10;2.53;;;21.90;33.00;;;;;;5010523;28;46713;-59
2022/06/11 06:50:56;;;;;;;6.20;3.30;;;22.00;33.00;;;;;;5013392;28;46277;-62
2022/06/11 06:53:22;;;;;;;6.10;3.20;;;21.90;32.90;;;;;;5016599;28;46507;-61
2022/06/11 06:55:48;;;;;;;6.97;2.83;;;21.90;32.90;;;;;;5015705;28;46380;-61
2022/06/11 06:58:15;;;;;;;4.60;3.00;;;22.00;32.70;;;;;;5016259;28;45961;-61
2022/06/11 07:00:42;;;;;;;8.97;3.40;;;22.10;32.50;;;;;;5015778;28;46488;-61
2022/06/11 07:03:08;;;;;;;4.77;2.70;;;22.10;32.60;;;;;;5013176;28;46602;-62
2022/06/11 07:05:33;;;;;;;5.50;3.00;;;22.20;33.00;;;;;;5017886;28;46453;-62
2022/06/11 07:07:59;;;;;;;4.60;2.80;;;22.20;33.10;;;;;;5014882;28;46440;-61
2022/06/11 07:10:25;;;;;;;6.47;3.23;;;22.20;32.80;;;;;;5014408;28;46570;-61
2022/06/11 07:12:51;;;;;;;5.83;2.60;;;22.10;32.90;;;;;;5011502;28;47099;-60
2022/06/11 07:15:18;;;;;;;10.40;2.90;;;22.30;33.00;;;;;;5015022;28;46405;-62
2022/06/11 07:18:01;;;;;;;4.50;3.00;;;22.50;32.40;;;;;;5013022;28;46842;-61
2022/06/11 07:20:31;;;;;;;5.60;3.37;;;22.60;31.90;;;;;;5011685;28;46321;-60
2022/06/11 07:23:02;;;;;;;4.73;2.63;;;22.80;31.70;;;;;;5012518;28;46529;-62
2022/06/11 07:25:29;;;;;;;5.07;2.50;;;22.80;31.60;;;;;;5011838;28;46449;-61
2022/06/11 07:28:03;;;;;;;12.73;3.20;;;22.80;32.00;;;;;;5014832;28;46382;-62
2022/06/11 07:30:32;;;;;;;6.93;2.80;;;23.00;31.70;;;;;;5007438;28;46413;-61
2022/06/11 07:33:05;;;;;;;5.50;3.07;;;23.10;31.10;;;;;;5013223;28;47250;-61
2022/06/11 07:35:32;;;;;;;8.40;3.20;;;23.30;31.10;;;;;;5008680;28;46411;-61
2022/06/11 07:37:57;;;;;;;16.20;4.70;;;23.20;30.80;;;;;;5012008;28;46458;-62
2022/06/11 07:40:24;;;;;;;6.97;2.77;;;23.30;30.80;;;;;;5012052;28;46410;-61
2022/06/11 07:42:50;;;;;;;5.13;2.53;;;23.40;30.50;;;;;;5009299;28;46464;-61
2022/06/11 07:45:15;;;;;;;6.87;2.80;;;23.30;30.00;;;;;;5017241;28;46364;-61
2022/06/11 07:47:53;;;;;;;5.77;2.77;;;23.40;29.60;;;;;;5010309;28;45821;-60
2022/06/11 07:50:20;;;;;;;3.00;2.03;;;23.50;29.30;;;;;;5001371;28;46717;-61
2022/06/11 07:52:46;;;;;;;5.10;2.70;;;23.50;29.00;;;;;;5010022;28;46623;-60
2022/06/11 07:55:11;;;;;;;5.90;2.40;;;23.60;28.50;;;;;;5016710;28;46390;-61
2022/06/11 07:57:39;;;;;;;3.70;2.20;;;23.70;28.40;;;;;;5011032;28;46493;-61
2022/06/11 08:00:09;;;;;;;5.27;2.30;;;23.80;28.10;;;;;;5009506;28;46691;-61
2022/06/11 08:02:35;;;;;;;5.00;2.87;;;24.00;27.60;;;;;;5015274;28;47340;-61
2022/06/11 08:05:00;;;;;;;7.80;3.00;;;23.90;27.60;;;;;;5010496;28;46508;-61
2022/06/11 08:07:27;;;;;;;3.93;2.47;;;24.00;27.30;;;;;;5016188;28;46399;-61
2022/06/11 08:09:53;;;;;;;4.10;2.30;;;24.00;26.50;;;;;;5013788;28;46550;-61
2022/06/11 08:12:19;;;;;;;5.37;3.00;;;24.00;26.90;;;;;;5016439;28;46389;-61
2022/06/11 08:14:45;;;;;;;7.03;2.73;;;23.80;26.20;;;;;;5017485;28;46447;-61
2022/06/11 08:17:10;;;;;;;4.03;2.60;;;23.80;26.60;;;;;;5016612;28;46338;-61
2022/06/11 08:19:36;;;;;;;5.17;2.87;;;24.00;27.20;;;;;;5013329;28;46454;-61
2022/06/11 08:22:02;;;;;;;6.30;2.63;;;24.20;27.10;;;;;;5014242;28;47137;-61
2022/06/11 08:24:28;;;;;;;6.30;2.40;;;24.50;26.80;;;;;;5014784;28;46364;-62
2022/06/11 08:26:54;;;;;;;5.23;2.93;;;24.60;26.70;;;;;;5013779;28;46451;-62
2022/06/11 08:29:19;;;;;;;6.80;2.70;;;24.50;25.70;;;;;;5012286;28;46358;-61
2022/06/11 08:31:45;;;;;;;5.70;2.47;;;24.40;25.50;;;;;;5012378;28;47039;-61
2022/06/11 08:34:10;;;;;;;8.13;2.70;;;24.60;25.70;;;;;;5013483;28;46390;-61
2022/06/11 08:36:36;;;;;;;6.33;2.80;;;24.70;25.80;;;;;;5014100;28;45855;-61
2022/06/11 08:39:02;;;;;;;4.77;2.30;;;24.80;25.80;;;;;;5014342;28;46619;-62
2022/06/11 08:41:35;;;;;;;5.13;2.53;;;24.90;25.20;;;;;;5012821;28;46449;-61
2022/06/11 08:44:05;;;;;;;7.93;2.90;;;24.90;24.50;;;;;;5013234;28;46345;-61
2022/06/11 08:46:34;;;;;;;5.90;2.90;;;25.00;25.10;;;;;;5014411;28;46300;-61
2022/06/11 08:49:08;;;;;;;5.60;3.40;;;25.10;24.90;;;;;;5011494;28;46812;-61
2022/06/11 08:51:40;;;;;;;4.60;2.83;;;25.00;24.20;;;;;;5012480;28;47165;-61
2022/06/11 08:54:15;;;;;;;7.40;3.00;;;25.00;24.30;;;;;;5012297;28;46449;-61
2022/06/11 08:57:22;;;;;;;7.00;2.60;;;25.20;23.90;;;;;;5014760;28;46381;-61
2022/06/11 09:00:06;;;;;;;4.10;2.60;;;25.00;23.80;;;;;;5015370;28;46343;-62
2022/06/11 09:03:07;;;;;;;9.03;2.83;;;25.00;25.00;;;;;;5012717;28;47222;-60
2022/06/11 09:05:58;;;;;;;7.90;2.70;;;25.20;24.70;;;;;;5011895;28;46540;-61
2022/06/11 09:08:41;;;;;;;4.50;2.50;;;25.30;23.80;;;;;;5012954;28;46332;-63
2022/06/11 09:11:29;;;;;;;8.20;2.47;;;25.30;23.60;;;;;;5008037;28;46268;-61
2022/06/11 09:14:23;;;;;;;5.83;2.70;;;25.30;23.60;;;;;;5015376;28;46243;-61
2022/06/11 09:17:00;;;;;;;5.67;2.40;;;25.40;24.20;;;;;;4978714;28;45970;-59
2022/06/11 09:19:29;;;;;;;4.77;2.40;;;25.50;23.40;;;;;;5011259;28;46454;-61
2022/06/11 09:22:00;;;;;;;5.73;2.80;;;25.40;24.30;;;;;;5010277;28;46382;-63
2022/06/11 09:24:35;;;;;;;5.60;2.67;;;25.40;23.90;;;;;;5012426;28;46410;-60
2022/06/11 09:27:05;;;;;;;7.50;2.43;;;25.50;23.70;;;;;;5011636;28;46759;-62
2022/06/11 09:29:40;;;;;;;7.13;3.10;;;25.60;23.80;;;;;;5012885;28;46407;-61
2022/06/11 09:32:45;;;;;;;11.40;3.00;;;25.60;23.20;;;;;;5087441;27;46503;-61
2022/06/11 09:35:27;;;;;;;4.80;2.50;;;25.70;22.50;;;;;;5089112;27;46512;-60
2022/06/11 09:37:58;;;;;;;5.10;2.73;;;25.70;22.10;;;;;;5081020;27;46441;-61
2022/06/11 09:40:24;;;;;;;4.90;2.73;;;25.70;22.60;;;;;;5068372;27;46532;-61
2022/06/11 09:43:12;;;;;;;4.97;2.60;;;25.80;22.50;;;;;;5068062;27;46661;-60
2022/06/11 09:46:07;;;;;;;4.70;2.60;;;26.00;22.10;;;;;;5084278;27;46408;-61
2022/06/11 09:48:41;;;;;;;5.53;2.10;;;25.80;21.60;;;;;;5067190;27;46365;-62
2022/06/11 09:51:11;;;;;;;5.73;2.20;;;25.90;21.80;;;;;;5069728;27;46438;-61
2022/06/11 09:53:58;;;;;;;5.63;2.70;;;25.90;21.50;;;;;;5066250;27;47120;-61
2022/06/11 09:56:33;;;;;;;7.27;2.80;;;25.90;21.60;;;;;;5067289;27;46381;-59
2022/06/11 09:59:19;;;;;;;5.43;2.50;;;26.00;21.90;;;;;;5067076;27;46411;-59
2022/06/11 10:01:54;;;;;;;9.43;2.90;;;26.10;21.60;;;;;;5066417;27;46476;-61
2022/06/11 10:04:27;;;;;;;3.70;2.33;;;26.10;21.30;;;;;;5065918;27;47000;-62
2022/06/11 10:06:56;;;;;;;6.10;2.50;;;25.90;21.50;;;;;;5067509;27;46415;-61
2022/06/11 10:09:42;;;;;;;4.67;2.50;;;25.80;22.10;;;;;;5064908;27;46432;-61
2022/06/11 10:12:27;;;;;;;5.07;2.70;;;26.00;21.80;;;;;;5069349;27;45849;-63
2022/06/11 10:15:00;;;;;;;8.20;2.33;;;26.10;21.70;;;;;;5065144;27;47978;-62
2022/06/11 10:17:26;;;;;;;4.30;2.63;;;26.20;21.20;;;;;;5062600;28;46445;-62
2022/06/11 10:20:00;;;;;;;4.77;2.30;;;26.40;20.60;;;;;;5068351;27;45896;-61
2022/06/11 10:22:43;;;;;;;4.00;2.07;;;26.10;20.00;;;;;;5067222;28;46448;-62
2022/06/11 10:25:27;;;;;;;5.17;2.13;;;26.00;20.50;;;;;;5069009;27;46417;-63
2022/06/11 10:28:23;;;;;;;3.83;2.17;;;26.20;20.60;;;;;;5065644;27;46391;-62
2022/06/11 10:31:05;;;;;;;4.23;1.80;;;26.30;19.60;;;;;;5063842;27;46688;-61
2022/06/11 10:33:53;;;;;;;3.20;1.80;;;26.50;19.20;;;;;;5066180;27;46422;-61
2022/06/11 10:36:25;;;;;;;7.07;1.77;;;26.70;18.40;;;;;;5072002;27;47755;-62
2022/06/11 10:39:17;;;;;;;5.20;1.97;;;26.80;17.90;;;;;;5073116;27;46558;-59
2022/06/11 10:42:09;;;;;;;3.87;1.70;;;26.70;18.40;;;;;;5066814;27;46379;-60
2022/06/11 10:44:51;;;;;;;4.43;1.70;;;26.80;17.10;;;;;;5059918;28;46634;-60
2022/06/11 10:47:28;;;;;;;5.10;1.80;;;26.70;17.00;;;;;;5053670;28;46470;-60
2022/06/11 10:50:07;;;;;;;3.10;1.70;;;26.60;17.80;;;;;;5051058;28;46440;-60
2022/06/11 10:52:48;;;;;;;2.30;1.20;;;26.60;17.40;;;;;;5053197;28;45761;-59
2022/06/11 10:55:47;;;;;;;4.70;1.87;;;26.70;15.80;;;;;;5052925;28;46411;-60
2022/06/11 10:58:38;;;;;;;2.60;1.63;;;26.60;15.70;;;;;;5058840;28;46467;-60
2022/06/11 11:01:10;;;;;;;4.93;1.90;;;26.70;15.80;;;;;;5053070;28;46409;-61
2022/06/11 11:03:39;;;;;;;2.90;1.80;;;26.70;15.80;;;;;;5053348;28;46464;-60
2022/06/11 11:06:16;;;;;;;4.60;2.00;;;26.90;16.60;;;;;;5054151;28;46447;-60
2022/06/11 11:08:53;;;;;;;2.97;1.50;;;26.80;17.00;;;;;;5053214;28;46474;-59
2022/06/11 11:11:19;;;;;;;2.93;1.47;;;26.90;17.00;;;;;;5054298;28;46275;-60
2022/06/11 11:13:46;;;;;;;3.40;1.50;;;27.10;16.80;;;;;;5054331;28;46329;-59
2022/06/11 11:16:12;;;;;;;3.30;1.67;;;27.10;16.00;;;;;;5053581;28;46391;-60
2022/06/11 11:19:02;;;;;;;3.40;1.50;;;27.00;15.60;;;;;;5059136;28;47958;-60
2022/06/11 11:21:53;;;;;;;3.10;1.67;;;26.90;14.70;;;;;;5051841;28;46392;-60
2022/06/11 11:24:23;;;;;;;3.13;1.77;;;26.90;14.50;;;;;;5056076;28;46661;-60
2022/06/11 11:27:02;;;;;;;3.30;1.37;;;26.80;16.60;;;;;;5054046;28;46504;-60
2022/06/11 11:29:46;;;;;;;7.07;2.20;;;26.80;14.90;;;;;;5050704;28;46510;-60
2022/06/11 11:32:27;;;;;;;3.00;1.90;;;27.00;15.90;;;;;;5053381;28;46446;-60
2022/06/11 11:34:53;;;;;;;3.80;1.70;;;27.00;15.90;;;;;;5053050;28;46401;-61
2022/06/11 11:37:31;;;;;;;3.30;1.83;;;27.00;15.90;;;;;;5052184;28;46389;-60
2022/06/11 11:40:00;;;;;;;3.53;1.83;;;27.00;15.30;;;;;;5050356;28;48147;-61
2022/06/11 11:42:31;;;;;;;3.27;1.67;;;27.10;15.40;;;;;;5054963;28;45875;-60
2022/06/11 11:44:59;;;;;;;3.50;1.70;;;27.00;15.90;;;;;;5050122;28;46308;-60
2022/06/11 11:47:39;;;;;;;3.73;1.80;;;27.00;15.90;;;;;;5053170;28;46579;-61
2022/06/11 11:50:26;;;;;;;3.20;1.67;;;26.80;15.40;;;;;;5052039;28;46296;-61
2022/06/11 11:53:02;;;;;;;5.97;1.73;;;26.80;14.50;;;;;;5051677;28;46442;-62
2022/06/11 11:55:31;;;;;;;2.83;1.60;;;26.60;14.70;;;;;;5050078;28;45809;-61
2022/06/11 11:58:02;;;;;;;3.67;1.80;;;26.60;14.60;;;;;;5053624;28;46448;-61
2022/06/11 12:00:49;;;;;;;3.80;1.60;;;26.60;14.80;;;;;;5051943;28;46710;-60
2022/06/11 12:03:23;;;;;;;3.80;1.70;;;26.70;15.00;;;;;;5053693;28;46473;-61
2022/06/11 12:05:55;;;;;;;3.67;1.90;;;26.90;15.00;;;;;;5053124;28;46429;-61
2022/06/11 12:08:46;;;;;;;3.23;2.00;;;26.90;15.30;;;;;;5050423;28;46557;-61
2022/06/11 12:11:25;;;;;;;3.27;1.80;;;27.00;15.30;;;;;;5049264;28;46649;-62
2022/06/11 12:14:02;;;;;;;5.80;1.73;;;26.60;14.60;;;;;;5053164;28;46360;-60
2022/06/11 12:16:38;;;;;;;6.47;1.63;;;26.70;14.50;;;;;;5050303;28;46456;-59
2022/06/11 12:19:20;;;;;;;3.80;1.70;;;26.90;15.10;;;;;;5052747;28;46432;-60
2022/06/11 12:22:01;;;;;;;3.90;2.00;;;26.70;15.10;;;;;;5053212;28;46374;-61
2022/06/11 12:24:38;;;;;;;3.63;1.90;;;26.90;14.90;;;;;;5051094;28;46396;-61
2022/06/11 12:27:12;;;;;;;3.00;1.50;;;27.00;15.30;;;;;;5051489;28;46346;-62
2022/06/11 12:29:48;;;;;;;2.90;1.57;;;26.80;14.90;;;;;;5051511;28;46432;-61
2022/06/11 12:32:23;;;;;;;3.50;1.83;;;26.60;15.80;;;;;;5049667;28;47193;-61
2022/06/11 12:34:51;;;;;;;5.60;1.87;;;26.40;15.00;;;;;;5053459;28;46401;-61
2022/06/11 12:37:39;;;;;;;3.20;1.70;;;26.40;15.20;;;;;;5051699;28;46404;-61
2022/06/11 12:40:44;;;;;;;5.10;1.73;;;26.50;15.00;;;;;;5050330;28;46799;-63
2022/06/11 12:43:27;;;;;;;5.30;1.60;;;26.60;14.20;;;;;;5056681;28;47027;-61
2022/06/11 12:46:06;;;;;;;4.00;1.80;;;26.80;14.40;;;;;;5056140;28;46350;-61
2022/06/11 12:49:00;;;;;;;3.63;1.77;;;26.90;14.00;;;;;;5051526;28;45839;-60
2022/06/11 12:51:44;;;;;;;4.00;1.70;;;27.00;15.10;;;;;;5052754;28;46635;-60
2022/06/11 12:54:15;;;;;;;3.70;1.80;;;26.80;15.10;;;;;;5050910;28;46427;-62
2022/06/11 12:57:02;;;;;;;3.90;1.60;;;26.70;15.80;;;;;;5050524;28;46317;-60
2022/06/11 12:59:33;;;;;;;3.83;1.87;;;26.80;15.30;;;;;;5052232;28;46419;-60
2022/06/11 13:02:17;;;;;;;3.27;1.70;;;26.80;15.40;;;;;;5047370;28;46498;-60
2022/06/11 13:05:11;;;;;;;3.20;1.87;;;26.80;15.10;;;;;;5055162;28;47760;-60
2022/06/11 13:07:55;;;;;;;3.30;1.70;;;26.80;14.80;;;;;;5055829;28;46524;-60
2022/06/11 13:10:43;;;;;;;4.30;1.83;;;26.90;15.30;;;;;;5049173;28;46447;-59
2022/06/11 13:13:27;;;;;;;3.03;1.50;;;27.10;15.70;;;;;;5048351;28;46373;-61
2022/06/11 13:16:08;;;;;;;3.83;1.50;;;27.10;15.00;;;;;;5049415;28;47088;-60